Time;durP1;ratioP1;P1;durP2;ratioP2;P2;SDS_P1;SDS_P2;PMS_P1;PMS_P2;Temp;Humidity;BMP_temperature;BMP_pressure;BME280_temperature;BME280_humidity;BME280_pressure;Samples;Min_cycle;Max_cycle;Signal;HPM_P1;HPM_P2
2023/10/13 00:01:44;;;;;;;39.30;24.80;;;;;;;;;;5052221;28;20564;-54
2023/10/13 00:04:10;;;;;;;43.50;26.73;;;;;;;;;;5054373;28;20723;-54
2023/10/13 00:06:37;;;;;;;39.97;27.03;;;;;;;;;;5054438;28;20192;-54
2023/10/13 00:09:04;;;;;;;40.57;27.00;;;;;;;;;;5054350;28;20215;-54
2023/10/13 00:11:30;;;;;;;45.87;27.63;;;;;;;;;;5054368;28;20204;-54
2023/10/13 00:13:56;;;;;;;46.50;27.47;;;;;;;;;;5054239;28;20204;-53
2023/10/13 00:16:22;;;;;;;44.20;26.63;;;;;;;;;;5053800;28;20277;-53
2023/10/13 00:18:54;;;;;;;44.13;26.27;;;;;;;;;;5054253;28;20207;-53
2023/10/13 00:21:31;;;;;;;49.57;28.90;;;;;;;;;;5054330;28;20178;-53
2023/10/13 00:23:57;;;;;;;41.13;26.40;;;;;;;;;;5053913;28;20226;-54
2023/10/13 00:26:27;;;;;;;43.50;27.83;;;;;;;;;;5054084;28;20246;-54
2023/10/13 00:29:32;;;;;;;50.37;31.77;;;;;;;;;;5053929;28;20216;-55
2023/10/13 00:31:48;;;;;;;46.10;29.80;;;;;;;;;;5051467;28;20215;-55
2023/10/13 00:34:37;;;;;;;48.83;29.13;;;;;;;;;;5053586;28;20200;-55
2023/10/13 00:37:27;;;;;;;53.67;32.33;;;;;;;;;;5053131;28;20224;-55
2023/10/13 00:39:56;;;;;;;50.90;30.83;;;;;;;;;;5053308;28;20236;-55
2023/10/13 00:42:47;;;;;;;57.77;32.50;;;;;;;;;;5053535;28;20200;-55
2023/10/13 00:45:16;;;;;;;63.20;34.50;;;;;;;;;;5053249;28;20230;-54
2023/10/13 00:47:49;;;;;;;64.70;36.47;;;;;;;;;;5053434;28;20204;-55
2023/10/13 00:50:17;;;;;;;65.50;33.47;;;;;;;;;;5053497;28;20254;-56
2023/10/13 00:52:46;;;;;;;71.93;36.80;;;;;;;;;;5053099;28;20679;-55
2023/10/13 00:55:14;;;;;;;68.13;38.80;;;;;;;;;;5053370;28;20198;-55
2023/10/13 00:57:40;;;;;;;57.73;35.77;;;;;;;;;;5053132;28;20665;-54
2023/10/13 01:00:47;;;;;;;59.73;34.43;;;;;;;;;;5053127;28;21290;-55
2023/10/13 01:03:06;;;;;;;66.57;39.60;;;;;;;;;;5050844;28;20207;-54
2023/10/13 01:05:34;;;;;;;68.07;39.53;;;;;;;;;;5053183;28;20311;-54
2023/10/13 01:08:01;;;;;;;67.23;38.03;;;;;;;;;;5052936;28;20212;-54
2023/10/13 01:10:27;;;;;;;60.00;37.50;;;;;;;;;;5052945;28;20200;-54
2023/10/13 01:12:54;;;;;;;67.83;39.23;;;;;;;;;;5052787;28;20675;-54
2023/10/13 01:15:29;;;;;;;64.80;37.70;;;;;;;;;;5052928;28;20622;-54
2023/10/13 01:17:56;;;;;;;61.63;39.90;;;;;;;;;;5052727;28;20200;-54
2023/10/13 01:20:26;;;;;;;70.27;42.63;;;;;;;;;;5052775;28;20200;-54
2023/10/13 01:22:56;;;;;;;60.53;38.83;;;;;;;;;;5052609;28;20664;-54
2023/10/13 01:25:30;;;;;;;61.70;38.47;;;;;;;;;;5052640;28;20250;-54
2023/10/13 01:27:57;;;;;;;60.67;37.63;;;;;;;;;;5051732;28;20696;-54
2023/10/13 01:30:24;;;;;;;63.57;38.70;;;;;;;;;;5052560;28;20203;-54
2023/10/13 01:32:51;;;;;;;63.70;39.27;;;;;;;;;;5052555;28;20200;-54
2023/10/13 01:35:19;;;;;;;65.73;40.23;;;;;;;;;;5052534;28;20273;-54
2023/10/13 01:37:45;;;;;;;67.93;41.23;;;;;;;;;;5052379;28;20254;-54
2023/10/13 01:40:12;;;;;;;64.37;40.43;;;;;;;;;;5052208;28;20243;-54
2023/10/13 01:42:40;;;;;;;64.30;40.17;;;;;;;;;;5052358;28;20261;-56
2023/10/13 01:45:06;;;;;;;62.63;40.23;;;;;;;;;;5052260;28;20232;-54
2023/10/13 01:47:35;;;;;;;65.23;40.57;;;;;;;;;;5052411;28;20231;-54
2023/10/13 01:50:29;;;;;;;68.70;43.33;;;;;;;;;;5052227;28;20227;-56
2023/10/13 01:52:48;;;;;;;66.20;42.13;;;;;;;;;;5051843;28;20208;-54
2023/10/13 01:55:14;;;;;;;67.80;41.50;;;;;;;;;;5052272;28;20188;-54
2023/10/13 01:57:46;;;;;;;68.23;42.10;;;;;;;;;;5052108;28;20062;-54
2023/10/13 02:00:18;;;;;;;58.33;39.53;;;;;;;;;;5052026;28;20212;-54
2023/10/13 02:02:45;;;;;;;64.43;40.30;;;;;;;;;;5051967;28;20208;-54
2023/10/13 02:05:12;;;;;;;70.87;43.37;;;;;;;;;;5051971;28;20252;-56
2023/10/13 02:07:44;;;;;;;71.43;43.37;;;;;;;;;;5051925;28;20245;-54
2023/10/13 02:10:12;;;;;;;70.07;44.10;;;;;;;;;;5051880;28;20192;-54
2023/10/13 02:12:44;;;;;;;58.37;40.37;;;;;;;;;;5051787;28;20740;-55
2023/10/13 02:15:22;;;;;;;68.37;42.40;;;;;;;;;;5051782;28;20193;-54
2023/10/13 02:17:51;;;;;;;63.80;41.97;;;;;;;;;;5051892;28;20204;-55
2023/10/13 02:20:23;;;;;;;74.70;43.60;;;;;;;;;;5051829;28;20608;-56
2023/10/13 02:22:49;;;;;;;63.90;42.13;;;;;;;;;;5051653;28;20223;-55
2023/10/13 02:25:17;;;;;;;61.20;40.17;;;;;;;;;;5051693;28;20618;-55
2023/10/13 02:27:44;;;;;;;63.43;40.70;;;;;;;;;;5051568;28;20242;-55
2023/10/13 02:30:15;;;;;;;63.00;43.00;;;;;;;;;;5051553;28;20840;-55
2023/10/13 02:32:43;;;;;;;71.27;43.03;;;;;;;;;;5051550;28;20391;-55
2023/10/13 02:35:15;;;;;;;66.60;43.57;;;;;;;;;;5051617;28;20298;-55
2023/10/13 02:37:43;;;;;;;61.13;41.80;;;;;;;;;;5051278;28;20249;-55
2023/10/13 02:40:10;;;;;;;70.93;45.67;;;;;;;;;;5051369;28;20252;-55
2023/10/13 02:42:36;;;;;;;66.70;42.63;;;;;;;;;;5051499;28;20192;-54
2023/10/13 02:45:03;;;;;;;66.07;43.67;;;;;;;;;;5051376;28;20251;-55
2023/10/13 02:47:31;;;;;;;62.80;42.63;;;;;;;;;;5051472;28;20685;-55
2023/10/13 02:50:11;;;;;;;60.07;41.53;;;;;;;;;;5051290;28;20200;-55
2023/10/13 02:52:41;;;;;;;63.07;43.30;;;;;;;;;;5051398;28;20207;-55
2023/10/13 02:55:10;;;;;;;59.73;42.20;;;;;;;;;;5051293;28;20223;-55
2023/10/13 02:57:36;;;;;;;57.50;43.30;;;;;;;;;;5051451;28;20259;-55
2023/10/13 03:00:15;;;;;;;62.00;42.37;;;;;;;;;;5051363;28;20208;-55
2023/10/13 03:02:58;;;;;;;61.03;42.57;;;;;;;;;;5051296;28;20200;-55
2023/10/13 03:05:24;;;;;;;61.43;43.17;;;;;;;;;;5051162;28;20224;-54
2023/10/13 03:07:50;;;;;;;61.63;42.13;;;;;;;;;;5051178;28;20558;-55
2023/10/13 03:10:19;;;;;;;60.77;41.33;;;;;;;;;;5051416;28;20275;-56
2023/10/13 03:12:48;;;;;;;50.60;40.17;;;;;;;;;;5051227;28;20284;-56
2023/10/13 03:15:19;;;;;;;66.97;44.27;;;;;;;;;;5049356;28;20720;-56
2023/10/13 03:17:46;;;;;;;57.13;42.63;;;;;;;;;;5051126;28;20230;-55
2023/10/13 03:20:16;;;;;;;59.13;42.73;;;;;;;;;;5051194;28;20227;-55
2023/10/13 03:22:45;;;;;;;56.43;40.83;;;;;;;;;;5051003;28;20779;-55
2023/10/13 03:25:17;;;;;;;53.00;40.33;;;;;;;;;;5050966;28;20224;-55
2023/10/13 03:30:20;;;;;;;58.13;41.63;;;;;;;;;;5051342;28;20196;-55
2023/10/13 03:32:53;;;;;;;58.73;41.43;;;;;;;;;;5051050;28;20287;-55
2023/10/13 03:35:37;;;;;;;55.47;41.37;;;;;;;;;;5051120;28;20734;-55
2023/10/13 03:38:03;;;;;;;57.13;42.17;;;;;;;;;;5050957;28;20204;-56
2023/10/13 03:43:11;;;;;;;56.33;42.17;;;;;;;;;;5050886;28;20690;-56
2023/10/13 03:45:42;;;;;;;52.73;41.30;;;;;;;;;;5050845;28;20221;-56
2023/10/13 03:51:10;;;;;;;53.37;40.60;;;;;;;;;;5053124;28;20207;-55
2023/10/13 03:53:38;;;;;;;54.53;41.30;;;;;;;;;;5052771;28;20749;-55
2023/10/13 03:56:11;;;;;;;49.90;41.20;;;;;;;;;;5054461;28;20211;-56
2023/10/13 03:58:47;;;;;;;46.77;37.67;;;;;;;;;;5054346;28;20276;-55
2023/10/13 04:01:16;;;;;;;46.07;38.37;;;;;;;;;;5054390;28;20545;-55
2023/10/13 04:04:10;;;;;;;47.63;36.53;;;;;;;;;;5054176;28;20601;-55
2023/10/13 04:17:15;;;;;;;41.13;32.80;;;;;;;;;;5053989;28;20278;-57
2023/10/13 04:24:08;;;;;;;41.37;35.23;;;;;;;;;;5053914;28;20717;-56
2023/10/13 04:25:38;;;;;;;41.63;33.30;;;;;;;;;;5044690;28;20597;-56
2023/10/13 04:36:14;;;;;;;35.60;31.73;;;;;;;;;;5053591;28;20269;-55
2023/10/13 04:38:55;;;;;;;40.20;32.43;;;;;;;;;;5053576;28;20211;-55
2023/10/13 04:41:24;;;;;;;35.90;30.43;;;;;;;;;;5053677;28;20589;-56
2023/10/13 04:43:55;;;;;;;35.43;31.03;;;;;;;;;;5053350;28;20214;-55
2023/10/13 04:49:10;;;;;;;38.33;31.77;;;;;;;;;;5030328;28;20232;-55
2023/10/13 04:51:58;;;;;;;36.67;30.70;;;;;;;;;;5053288;28;20204;-55
2023/10/13 04:54:34;;;;;;;38.10;29.73;;;;;;;;;;5053659;28;20197;-55
2023/10/13 04:57:23;;;;;;;34.37;29.50;;;;;;;;;;5053469;28;20275;-55
2023/10/13 05:05:30;;;;;;;36.63;30.00;;;;;;;;;;5053410;28;20216;-56
2023/10/13 06:29:38;;;;;;;31.80;25.53;;;;;;;;;;5051838;28;20296;-55
2023/10/13 06:32:10;;;;;;;28.87;24.70;;;;;;;;;;5051590;28;20208;-56
2023/10/13 06:34:45;;;;;;;27.97;24.33;;;;;;;;;;5051713;28;20196;-55
2023/10/13 06:39:56;;;;;;;30.97;24.80;;;;;;;;;;5051223;28;20318;-55
2023/10/13 06:42:26;;;;;;;31.13;23.97;;;;;;;;;;5051461;28;20257;-54
2023/10/13 06:44:54;;;;;;;27.30;22.83;;;;;;;;;;5051192;28;20755;-54
2023/10/13 06:47:21;;;;;;;26.83;22.07;;;;;;;;;;5051492;28;20196;-54
2023/10/13 06:49:50;;;;;;;23.90;21.30;;;;;;;;;;5051708;28;20196;-55
2023/10/13 06:52:17;;;;;;;26.93;22.23;;;;;;;;;;5051412;28;20203;-55
2023/10/13 06:54:43;;;;;;;23.70;20.30;;;;;;;;;;5051290;28;20656;-55
2023/10/13 06:57:20;;;;;;;25.93;20.33;;;;;;;;;;5051236;28;20196;-55
2023/10/13 06:59:46;;;;;;;22.00;19.77;;;;;;;;;;5051472;28;20195;-55
2023/10/13 07:02:22;;;;;;;20.43;17.87;;;;;;;;;;5051202;28;20287;-54
2023/10/13 07:04:56;;;;;;;20.67;18.47;;;;;;;;;;5051200;28;20223;-55
2023/10/13 07:07:23;;;;;;;21.67;17.70;;;;;;;;;;5051221;28;20261;-56
2023/10/13 07:09:55;;;;;;;21.47;17.17;;;;;;;;;;5051328;28;20207;-54
2023/10/13 07:12:26;;;;;;;19.57;17.03;;;;;;;;;;5051291;28;20216;-54
2023/10/13 07:14:53;;;;;;;19.80;16.77;;;;;;;;;;5051178;28;20192;-54
2023/10/13 07:17:23;;;;;;;19.13;15.37;;;;;;;;;;5051307;28;20200;-54
2023/10/13 07:19:53;;;;;;;18.80;15.27;;;;;;;;;;5051113;28;20227;-54
2023/10/13 07:22:19;;;;;;;16.10;13.87;;;;;;;;;;5050957;28;20584;-55
2023/10/13 07:24:48;;;;;;;18.40;13.93;;;;;;;;;;5051438;28;20277;-54
2023/10/13 07:27:22;;;;;;;16.47;13.10;;;;;;;;;;5054811;28;20690;-54
2023/10/13 07:29:54;;;;;;;15.53;13.77;;;;;;;;;;5055087;28;20585;-55
2023/10/13 07:32:24;;;;;;;16.03;13.33;;;;;;;;;;5054767;28;20292;-55
2023/10/13 07:34:50;;;;;;;14.97;12.10;;;;;;;;;;5053534;28;20580;-54
2023/10/13 07:37:16;;;;;;;14.90;11.97;;;;;;;;;;5054734;28;20262;-52
2023/10/13 07:39:42;;;;;;;13.33;11.77;;;;;;;;;;5054448;28;20228;-54
2023/10/13 07:42:21;;;;;;;12.30;10.80;;;;;;;;;;5054565;28;20207;-53
2023/10/13 07:44:48;;;;;;;14.20;11.47;;;;;;;;;;5054417;28;20232;-55
2023/10/13 07:47:14;;;;;;;16.33;12.37;;;;;;;;;;5054125;28;20620;-52
2023/10/13 07:52:58;;;;;;;12.00;10.67;;;;;;;;;;5054248;28;20175;-57
2023/10/13 07:55:25;;;;;;;12.93;10.53;;;;;;;;;;5054402;28;20613;-55
2023/10/13 07:57:54;;;;;;;12.17;10.93;;;;;;;;;;5054544;28;20203;-54
2023/10/13 08:00:46;;;;;;;12.70;11.07;;;;;;;;;;5054316;28;20710;-54
2023/10/13 08:08:39;;;;;;;15.10;10.50;;;;;;;;;;5054000;28;20196;-56
2023/10/13 08:11:11;;;;;;;11.53;9.80;;;;;;;;;;5054279;28;20558;-56
2023/10/13 08:13:38;;;;;;;11.17;9.83;;;;;;;;;;5054026;28;20200;-56
2023/10/13 08:16:20;;;;;;;11.50;9.67;;;;;;;;;;5054023;28;20192;-56
2023/10/13 08:18:49;;;;;;;9.37;8.37;;;;;;;;;;5054290;28;20210;-56
2023/10/13 08:21:22;;;;;;;9.73;8.73;;;;;;;;;;5052833;28;20196;-56
2023/10/13 08:32:04;;;;;;;9.53;8.03;;;;;;;;;;5053792;28;20193;-55
2023/10/13 08:34:38;;;;;;;9.07;7.23;;;;;;;;;;5053708;28;20200;-55
2023/10/13 08:37:19;;;;;;;8.37;6.77;;;;;;;;;;5053472;28;20220;-55
2023/10/13 08:48:07;;;;;;;9.23;6.50;;;;;;;;;;5053721;28;20287;-55
2023/10/13 09:04:21;;;;;;;11.13;5.43;;;;;;;;;;5053181;28;20736;-55
2023/10/13 09:07:07;;;;;;;7.80;5.73;;;;;;;;;;5053338;28;20268;-55
2023/10/13 09:09:35;;;;;;;5.60;4.93;;;;;;;;;;5053131;28;20213;-55
2023/10/13 09:12:10;;;;;;;9.73;5.30;;;;;;;;;;5053058;28;20210;-55
2023/10/13 09:14:44;;;;;;;5.70;4.73;;;;;;;;;;5052871;28;20208;-55
2023/10/13 09:19:47;;;;;;;7.53;5.07;;;;;;;;;;5052914;28;20201;-56
2023/10/13 09:22:25;;;;;;;7.97;4.63;;;;;;;;;;5052597;28;20195;-55
2023/10/13 09:24:52;;;;;;;5.87;4.70;;;;;;;;;;5052740;28;20303;-55
2023/10/13 09:27:19;;;;;;;8.50;4.77;;;;;;;;;;5052788;28;20202;-55
2023/10/13 09:29:54;;;;;;;5.50;4.13;;;;;;;;;;5052691;28;20305;-55
2023/10/13 09:32:21;;;;;;;8.53;4.50;;;;;;;;;;5052857;28;20204;-56
2023/10/13 09:34:48;;;;;;;8.03;4.67;;;;;;;;;;5052871;28;20195;-55
2023/10/13 09:37:20;;;;;;;7.70;4.43;;;;;;;;;;5052459;28;20222;-56
2023/10/13 09:39:51;;;;;;;8.40;4.10;;;;;;;;;;5052540;28;20257;-56
2023/10/13 09:42:18;;;;;;;7.13;4.40;;;;;;;;;;5052652;28;20737;-55
2023/10/13 09:44:55;;;;;;;5.60;4.20;;;;;;;;;;5052385;28;20235;-53
2023/10/13 09:47:30;;;;;;;4.57;3.90;;;;;;;;;;5051526;28;20216;-58
2023/10/13 09:50:03;;;;;;;8.43;3.70;;;;;;;;;;5052201;28;20207;-56
2023/10/13 09:52:30;;;;;;;6.43;4.03;;;;;;;;;;5051973;28;20250;-54
2023/10/13 09:54:59;;;;;;;5.77;3.60;;;;;;;;;;5052181;28;20190;-56
2023/10/13 09:57:34;;;;;;;4.93;3.77;;;;;;;;;;5051981;28;20214;-54
2023/10/13 10:00:07;;;;;;;4.83;3.70;;;;;;;;;;5052099;28;20573;-55
2023/10/13 10:02:34;;;;;;;6.03;3.87;;;;;;;;;;5052179;28;20216;-55
2023/10/13 10:05:21;;;;;;;6.93;3.57;;;;;;;;;;5051906;28;20234;-57
2023/10/13 10:07:55;;;;;;;6.87;3.80;;;;;;;;;;5051898;28;20192;-55
2023/10/13 10:10:24;;;;;;;5.43;3.80;;;;;;;;;;5051904;28;20202;-55
2023/10/13 10:12:55;;;;;;;6.17;3.90;;;;;;;;;;5052035;28;20207;-56
2023/10/13 10:15:30;;;;;;;8.53;3.90;;;;;;;;;;5051746;28;20209;-55
2023/10/13 10:17:56;;;;;;;8.63;3.80;;;;;;;;;;5051844;28;20286;-54
2023/10/13 10:20:39;;;;;;;8.10;4.10;;;;;;;;;;5051711;28;20199;-54
2023/10/13 10:23:09;;;;;;;7.23;3.83;;;;;;;;;;5051799;28;20261;-54
2023/10/13 10:25:37;;;;;;;8.73;3.80;;;;;;;;;;5051423;28;20246;-55
2023/10/13 10:28:07;;;;;;;8.33;4.17;;;;;;;;;;5051670;28;20639;-56
2023/10/13 10:30:38;;;;;;;5.20;3.60;;;;;;;;;;5051652;28;20273;-56
2023/10/13 10:33:12;;;;;;;7.10;4.03;;;;;;;;;;5051922;28;20215;-54
2023/10/13 10:35:38;;;;;;;8.57;3.53;;;;;;;;;;5051679;28;20222;-57
2023/10/13 10:38:11;;;;;;;9.80;3.83;;;;;;;;;;5051795;28;20195;-57
2023/10/13 10:40:51;;;;;;;7.37;3.50;;;;;;;;;;5051425;28;20256;-57
2023/10/13 10:43:20;;;;;;;6.93;4.03;;;;;;;;;;5051722;28;20200;-57
2023/10/13 10:45:51;;;;;;;10.33;3.57;;;;;;;;;;5051648;28;20234;-57
2023/10/13 10:48:21;;;;;;;10.90;4.00;;;;;;;;;;5051812;28;20195;-57
2023/10/13 10:50:54;;;;;;;11.50;4.00;;;;;;;;;;5051696;28;20278;-57
2023/10/13 10:53:22;;;;;;;9.00;3.83;;;;;;;;;;5051539;28;20187;-57
2023/10/13 10:55:48;;;;;;;7.53;3.80;;;;;;;;;;5051756;28;20195;-57
2023/10/13 10:58:30;;;;;;;8.53;3.90;;;;;;;;;;5051536;28;20650;-57
2023/10/13 11:01:20;;;;;;;12.63;3.60;;;;;;;;;;5055753;28;20204;-57
2023/10/13 11:03:55;;;;;;;8.87;4.00;;;;;;;;;;5055613;28;20211;-56
2023/10/13 11:06:24;;;;;;;10.83;3.93;;;;;;;;;;5055374;28;20234;-56
2023/10/13 11:08:52;;;;;;;7.67;3.87;;;;;;;;;;5055690;28;20204;-57
2023/10/13 11:11:33;;;;;;;8.07;4.00;;;;;;;;;;5055496;28;20210;-57
2023/10/13 11:14:22;;;;;;;9.00;4.43;;;;;;;;;;5055668;28;20211;-56
2023/10/13 11:16:50;;;;;;;10.17;4.17;;;;;;;;;;5055618;28;20254;-57
2023/10/13 11:19:20;;;;;;;6.27;3.70;;;;;;;;;;5055423;28;20201;-56
2023/10/13 11:21:47;;;;;;;10.60;4.40;;;;;;;;;;5055205;28;20653;-56
2023/10/13 11:24:14;;;;;;;13.27;4.53;;;;;;;;;;5055417;28;20200;-56
2023/10/13 11:26:49;;;;;;;10.20;4.27;;;;;;;;;;5054950;28;20212;-55
2023/10/13 11:29:17;;;;;;;6.03;4.20;;;;;;;;;;5055098;28;20196;-56
2023/10/13 11:31:45;;;;;;;8.13;4.10;;;;;;;;;;5055033;28;20562;-56
2023/10/13 11:34:16;;;;;;;11.30;4.00;;;;;;;;;;5055095;28;20226;-56
2023/10/13 11:36:42;;;;;;;10.50;3.57;;;;;;;;;;5054781;28;20230;-56
2023/10/13 11:39:09;;;;;;;9.63;3.93;;;;;;;;;;5054816;28;20243;-56
2023/10/13 11:41:38;;;;;;;12.40;4.47;;;;;;;;;;5054973;28;20204;-56
2023/10/13 11:45:01;;;;;;;7.97;3.90;;;;;;;;;;5052461;28;20205;-54
2023/10/13 11:47:08;;;;;;;8.73;4.10;;;;;;;;;;5051244;28;20549;-55
2023/10/13 11:49:37;;;;;;;9.30;4.00;;;;;;;;;;5054381;28;20812;-54
2023/10/13 11:52:15;;;;;;;7.90;3.73;;;;;;;;;;5054475;28;20274;-55
2023/10/13 11:54:42;;;;;;;8.03;3.90;;;;;;;;;;5054208;28;20278;-56
2023/10/13 11:57:08;;;;;;;10.07;3.90;;;;;;;;;;5054110;28;20196;-55
2023/10/13 11:59:40;;;;;;;19.07;4.60;;;;;;;;;;5054458;28;20229;-55
2023/10/13 12:04:54;;;;;;;10.43;4.37;;;;;;;;;;5054189;28;20215;-55
2023/10/13 12:07:23;;;;;;;11.60;4.43;;;;;;;;;;5054449;28;20288;-55
2023/10/13 12:10:03;;;;;;;9.63;4.40;;;;;;;;;;5054022;28;20224;-56
2023/10/13 12:12:40;;;;;;;12.53;4.67;;;;;;;;;;5053221;28;20204;-55
2023/10/13 12:15:13;;;;;;;10.93;4.30;;;;;;;;;;5053936;28;20208;-56
2023/10/13 12:17:44;;;;;;;10.30;4.43;;;;;;;;;;5053808;28;20209;-56
2023/10/13 12:20:18;;;;;;;10.90;4.72;;;;;;;;;;5052549;28;20435;-55
2023/10/13 12:22:54;;;;;;;11.67;5.00;;;;;;;;;;5053470;28;20730;-56
2023/10/13 12:28:12;;;;;;;13.43;5.03;;;;;;;;;;5053674;28;20537;-55
2023/10/13 12:30:54;;;;;;;11.93;4.80;;;;;;;;;;5053508;28;20196;-55
2023/10/13 12:33:28;;;;;;;14.33;4.70;;;;;;;;;;5053579;28;20685;-56
2023/10/13 12:36:26;;;;;;;11.97;4.40;;;;;;;;;;5053477;28;20230;-55
2023/10/13 12:55:19;;;;;;;11.00;4.83;;;;;;;;;;5040991;28;20786;-55
2023/10/13 12:57:45;;;;;;;10.87;4.50;;;;;;;;;;5044598;28;20279;-57
2023/10/13 13:00:21;;;;;;;9.37;4.70;;;;;;;;;;5042591;28;20189;-55
2023/10/13 13:02:50;;;;;;;16.23;5.00;;;;;;;;;;5043924;28;20228;-55
2023/10/13 13:05:19;;;;;;;11.90;4.23;;;;;;;;;;5043782;28;20224;-55
2023/10/13 13:07:47;;;;;;;12.87;4.80;;;;;;;;;;5042406;28;20763;-56
2023/10/13 13:10:13;;;;;;;12.37;4.43;;;;;;;;;;5042277;28;20200;-55
2023/10/13 13:12:39;;;;;;;11.53;4.50;;;;;;;;;;5043649;28;20258;-55
2023/10/13 13:15:09;;;;;;;12.57;4.53;;;;;;;;;;5042617;28;20264;-53
2023/10/13 13:17:35;;;;;;;13.93;4.57;;;;;;;;;;5041850;28;20195;-57
2023/10/13 13:20:10;;;;;;;11.47;4.90;;;;;;;;;;5044313;28;20256;-57
2023/10/13 13:22:36;;;;;;;11.50;5.23;;;;;;;;;;5040281;28;20679;-57
2023/10/13 13:25:08;;;;;;;14.43;5.00;;;;;;;;;;5043369;28;20209;-56
2023/10/13 13:27:36;;;;;;;11.77;4.90;;;;;;;;;;5043379;28;20254;-57
2023/10/13 13:30:09;;;;;;;9.83;4.77;;;;;;;;;;5043476;28;20655;-56
2023/10/13 13:32:37;;;;;;;10.20;4.20;;;;;;;;;;5043233;28;20555;-56
2023/10/13 13:35:04;;;;;;;10.87;4.33;;;;;;;;;;5041363;28;20193;-56
2023/10/13 13:37:30;;;;;;;14.93;5.20;;;;;;;;;;5041985;28;20224;-56
2023/10/13 13:40:13;;;;;;;11.47;4.83;;;;;;;;;;5051791;28;20265;-56
2023/10/13 13:42:40;;;;;;;10.27;4.47;;;;;;;;;;5052589;28;20203;-56
2023/10/13 13:45:12;;;;;;;14.43;5.03;;;;;;;;;;5052537;28;20239;-56
2023/10/13 13:47:38;;;;;;;11.77;5.37;;;;;;;;;;5052345;28;20291;-55
2023/10/13 13:50:14;;;;;;;15.03;4.93;;;;;;;;;;5050585;28;20295;-55
2023/10/13 13:52:45;;;;;;;16.67;5.47;;;;;;;;;;5051899;28;20210;-54
2023/10/13 13:55:17;;;;;;;12.20;5.07;;;;;;;;;;5051903;28;20197;-55
2023/10/13 13:57:44;;;;;;;12.10;5.27;;;;;;;;;;5051777;28;20190;-55
2023/10/13 14:00:16;;;;;;;10.17;5.00;;;;;;;;;;5052022;28;20306;-55
2023/10/13 14:02:47;;;;;;;14.77;5.50;;;;;;;;;;5051731;28;20275;-55
2023/10/13 14:05:15;;;;;;;10.97;5.00;;;;;;;;;;5051667;28;20225;-55
2023/10/13 14:07:42;;;;;;;11.67;4.67;;;;;;;;;;5033880;28;20545;-55
2023/10/13 14:10:16;;;;;;;10.10;5.03;;;;;;;;;;5032334;28;20255;-55
2023/10/13 14:12:42;;;;;;;10.63;4.97;;;;;;;;;;5032074;28;20651;-55
2023/10/13 14:15:19;;;;;;;12.53;4.60;;;;;;;;;;5032289;28;20198;-55
2023/10/13 14:17:46;;;;;;;12.20;4.87;;;;;;;;;;5032165;28;20209;-54
2023/10/13 14:20:18;;;;;;;11.67;4.97;;;;;;;;;;5032184;28;20223;-54
2023/10/13 14:22:47;;;;;;;11.50;5.07;;;;;;;;;;5032011;28;20275;-54
2023/10/13 14:25:14;;;;;;;8.00;4.63;;;;;;;;;;5032036;28;20240;-54
2023/10/13 14:27:40;;;;;;;8.13;4.47;;;;;;;;;;5031874;28;20208;-54
2023/10/13 14:30:07;;;;;;;10.80;4.60;;;;;;;;;;5031986;28;20585;-54
2023/10/13 14:32:40;;;;;;;11.97;5.37;;;;;;;;;;5031985;28;20271;-54
2023/10/13 14:35:14;;;;;;;12.77;5.00;;;;;;;;;;5031435;28;20281;-54
2023/10/13 14:37:40;;;;;;;15.63;5.07;;;;;;;;;;5031740;28;20209;-55
2023/10/13 14:40:12;;;;;;;13.57;5.17;;;;;;;;;;5031701;28;20240;-55
2023/10/13 14:42:40;;;;;;;13.70;5.77;;;;;;;;;;5031748;28;20205;-55
2023/10/13 14:45:12;;;;;;;12.73;4.80;;;;;;;;;;5031899;28;20239;-55
2023/10/13 14:47:39;;;;;;;10.50;5.10;;;;;;;;;;5031696;28;20673;-54
2023/10/13 14:50:06;;;;;;;14.53;4.70;;;;;;;;;;5031971;28;20312;-54
2023/10/13 14:52:33;;;;;;;10.47;5.00;;;;;;;;;;5031884;28;20222;-54
2023/10/13 14:54:59;;;;;;;13.13;5.50;;;;;;;;;;5031659;28;20193;-55
2023/10/13 14:57:25;;;;;;;11.23;4.37;;;;;;;;;;5031608;28;20201;-54
2023/10/13 14:59:52;;;;;;;12.47;5.77;;;;;;;;;;5031639;28;20255;-55
2023/10/13 15:02:18;;;;;;;15.07;5.53;;;;;;;;;;5031833;28;20220;-55
2023/10/13 15:04:48;;;;;;;13.57;5.27;;;;;;;;;;5031389;28;20205;-54
2023/10/13 15:07:15;;;;;;;9.93;4.93;;;;;;;;;;5031688;28;20204;-55
2023/10/13 15:09:42;;;;;;;11.17;5.47;;;;;;;;;;5031479;28;20524;-55
2023/10/13 15:12:10;;;;;;;10.37;4.77;;;;;;;;;;5031828;28;20205;-54
2023/10/13 15:14:36;;;;;;;15.90;5.30;;;;;;;;;;5031462;28;20205;-54
2023/10/13 15:17:05;;;;;;;10.73;5.40;;;;;;;;;;5031577;28;20651;-54
2023/10/13 15:19:35;;;;;;;10.80;4.57;;;;;;;;;;5033784;28;20303;-54
2023/10/13 15:22:06;;;;;;;15.03;5.57;;;;;;;;;;5031374;28;20215;-54
2023/10/13 15:24:36;;;;;;;14.70;4.97;;;;;;;;;;5029030;28;20234;-55
2023/10/13 15:27:02;;;;;;;12.67;5.70;;;;;;;;;;5030762;28;20288;-55
2023/10/13 15:29:35;;;;;;;7.13;4.77;;;;;;;;;;5030792;28;20207;-55
2023/10/13 15:34:28;;;;;;;12.97;5.63;;;;;;;;;;5030796;28;20212;-54
2023/10/13 15:36:55;;;;;;;11.93;5.10;;;;;;;;;;5030679;28;20303;-54
2023/10/13 15:39:28;;;;;;;12.03;5.47;;;;;;;;;;5030780;28;20277;-54
2023/10/13 15:41:58;;;;;;;15.53;5.13;;;;;;;;;;5031213;28;20546;-54
2023/10/13 15:44:24;;;;;;;11.10;5.00;;;;;;;;;;5031235;28;20205;-55
2023/10/13 15:46:53;;;;;;;10.80;4.53;;;;;;;;;;5033410;28;20232;-58
2023/10/13 15:49:19;;;;;;;12.17;5.27;;;;;;;;;;5034851;28;20203;-54
2023/10/13 15:51:45;;;;;;;12.83;5.40;;;;;;;;;;5034556;28;20646;-54
2023/10/13 15:54:17;;;;;;;13.10;5.20;;;;;;;;;;5034658;28;20300;-54
2023/10/13 15:56:45;;;;;;;16.67;5.27;;;;;;;;;;5033998;28;20201;-54
2023/10/13 15:59:11;;;;;;;12.33;4.57;;;;;;;;;;5034538;28;20304;-54
2023/10/13 16:01:39;;;;;;;13.60;4.73;;;;;;;;;;5034507;28;20254;-54
2023/10/13 16:04:11;;;;;;;13.30;5.07;;;;;;;;;;5034724;28;20202;-54
2023/10/13 16:06:37;;;;;;;12.70;4.70;;;;;;;;;;5034343;28;20266;-54
2023/10/13 16:09:04;;;;;;;12.93;5.37;;;;;;;;;;5034643;28;20280;-54
2023/10/13 16:11:30;;;;;;;11.60;4.47;;;;;;;;;;5031989;28;20247;-54
2023/10/13 16:13:57;;;;;;;10.63;5.37;;;;;;;;;;5033927;28;20253;-54
2023/10/13 16:16:23;;;;;;;11.83;4.73;;;;;;;;;;5033592;28;20196;-54
2023/10/13 16:18:50;;;;;;;13.40;5.27;;;;;;;;;;5034248;28;20259;-54
2023/10/13 16:21:16;;;;;;;10.83;4.67;;;;;;;;;;5034354;28;20278;-54
2023/10/13 16:23:45;;;;;;;10.00;4.60;;;;;;;;;;5034200;28;20231;-54
2023/10/13 16:26:12;;;;;;;14.00;5.40;;;;;;;;;;5034189;28;20221;-54
2023/10/13 16:28:41;;;;;;;12.80;4.93;;;;;;;;;;5034041;28;20205;-54
2023/10/13 16:31:08;;;;;;;11.27;4.70;;;;;;;;;;5034198;28;20205;-54
2023/10/13 16:33:39;;;;;;;13.57;4.93;;;;;;;;;;5034061;28;20201;-54
2023/10/13 16:36:08;;;;;;;12.90;4.90;;;;;;;;;;5034071;28;20264;-54
2023/10/13 16:38:35;;;;;;;15.20;5.03;;;;;;;;;;5033951;28;20297;-54
2023/10/13 16:41:05;;;;;;;13.00;5.27;;;;;;;;;;5033896;28;20676;-54
2023/10/13 16:43:33;;;;;;;11.27;5.13;;;;;;;;;;5033847;28;20672;-54
2023/10/13 16:45:59;;;;;;;14.60;5.07;;;;;;;;;;5033959;28;20236;-54
2023/10/13 16:48:31;;;;;;;14.30;5.60;;;;;;;;;;5033687;28;20669;-54
2023/10/13 16:50:59;;;;;;;15.83;5.03;;;;;;;;;;5033819;28;20216;-54
2023/10/13 16:53:25;;;;;;;13.07;5.10;;;;;;;;;;5033611;28;20191;-54
2023/10/13 16:55:51;;;;;;;14.13;5.03;;;;;;;;;;5033692;28;20196;-54
2023/10/13 16:58:17;;;;;;;14.70;5.30;;;;;;;;;;5033403;28;20201;-54
2023/10/13 17:00:44;;;;;;;14.70;4.63;;;;;;;;;;5033420;28;20196;-54
2023/10/13 17:03:11;;;;;;;15.90;4.93;;;;;;;;;;5033470;28;20203;-54
2023/10/13 17:05:42;;;;;;;14.50;5.00;;;;;;;;;;5033272;28;20339;-54
2023/10/13 17:08:08;;;;;;;12.50;5.00;;;;;;;;;;5033456;28;20207;-54
2023/10/13 17:10:35;;;;;;;13.73;4.97;;;;;;;;;;5033338;28;20203;-54
2023/10/13 17:13:04;;;;;;;10.93;4.60;;;;;;;;;;5033444;28;20232;-54
2023/10/13 17:15:32;;;;;;;13.90;4.70;;;;;;;;;;5033277;28;20226;-54
2023/10/13 17:17:58;;;;;;;14.00;4.70;;;;;;;;;;5033188;28;20251;-54
2023/10/13 17:20:24;;;;;;;18.57;5.07;;;;;;;;;;5033136;28;20208;-54
2023/10/13 17:22:55;;;;;;;14.17;4.70;;;;;;;;;;5033138;28;20281;-54
2023/10/13 17:25:21;;;;;;;12.63;5.23;;;;;;;;;;5033112;28;20234;-54
2023/10/13 17:27:47;;;;;;;12.37;4.60;;;;;;;;;;5033043;28;20204;-54
2023/10/13 17:30:13;;;;;;;11.97;4.70;;;;;;;;;;5033020;28;20197;-55
2023/10/13 17:32:39;;;;;;;13.27;4.70;;;;;;;;;;5032857;28;20280;-55
2023/10/13 17:35:06;;;;;;;14.70;4.93;;;;;;;;;;5032949;28;20283;-55
2023/10/13 17:37:33;;;;;;;16.17;5.23;;;;;;;;;;5032798;28;20279;-56
2023/10/13 17:40:01;;;;;;;14.10;4.70;;;;;;;;;;5032716;28;20242;-53
2023/10/13 17:42:27;;;;;;;11.70;5.53;;;;;;;;;;5032771;28;20270;-52
2023/10/13 17:44:53;;;;;;;15.37;5.00;;;;;;;;;;5032606;28;20211;-55
2023/10/13 17:47:20;;;;;;;16.43;5.37;;;;;;;;;;5032853;28;20201;-55
2023/10/13 17:49:46;;;;;;;13.87;5.27;;;;;;;;;;5032634;28;20255;-54
2023/10/13 17:52:12;;;;;;;14.17;5.03;;;;;;;;;;5032557;28;20200;-52
2023/10/13 17:54:40;;;;;;;11.53;4.97;;;;;;;;;;5032466;28;20197;-52